Time;durP1;ratioP1;P1;durP2;ratioP2;P2;SDS_P1;SDS_P2;PMS_P1;PMS_P2;Temp;Humidity;BMP_temperature;BMP_pressure;BME280_temperature;BME280_humidity;BME280_pressure;Samples;Min_cycle;Max_cycle;Signal;HPM_P1;HPM_P2
2023/10/03 00:00:27;;;;;;;3.00;2.75;;;;;;;;;;5104910;28;20111;-63
2023/10/03 00:02:55;;;;;;;3.33;2.30;;;;;;;;;;5033818;28;20049;-63
2023/10/03 00:05:28;;;;;;;3.10;2.70;;;;;;;;;;5021401;28;20120;-63
2023/10/03 00:07:54;;;;;;;3.90;2.80;;;;;;;;;;5021307;28;20479;-63
2023/10/03 00:10:20;;;;;;;5.03;2.67;;;;;;;;;;5021293;28;20026;-63
2023/10/03 00:12:48;;;;;;;5.10;2.83;;;;;;;;;;5022368;28;20072;-63
2023/10/03 00:15:14;;;;;;;2.72;2.53;;;;;;;;;;5022979;28;20480;-63
2023/10/03 00:17:44;;;;;;;3.03;2.50;;;;;;;;;;5021431;28;20025;-63
2023/10/03 00:20:11;;;;;;;4.20;2.50;;;;;;;;;;5021677;28;20529;-63
2023/10/03 00:22:38;;;;;;;6.13;2.85;;;;;;;;;;5022943;28;20037;-63
2023/10/03 00:25:04;;;;;;;2.80;2.33;;;;;;;;;;5021555;28;20048;-63
2023/10/03 00:27:32;;;;;;;3.72;2.70;;;;;;;;;;5021458;28;20025;-63
2023/10/03 00:29:58;;;;;;;2.53;2.33;;;;;;;;;;5074364;28;20044;-62
2023/10/03 00:32:23;;;;;;;6.22;2.60;;;;;;;;;;5021507;28;20026;-56
2023/10/03 00:34:49;;;;;;;5.70;2.70;;;;;;;;;;5020693;28;20042;-56
2023/10/03 00:37:14;;;;;;;2.92;2.63;;;;;;;;;;5090883;28;20060;-63
2023/10/03 00:39:41;;;;;;;2.92;2.53;;;;;;;;;;5088922;28;20124;-64
2023/10/03 00:42:09;;;;;;;2.97;2.70;;;;;;;;;;5090110;28;20068;-63
2023/10/03 00:44:34;;;;;;;2.70;2.35;;;;;;;;;;5090971;28;20048;-63
2023/10/03 00:47:00;;;;;;;3.53;2.83;;;;;;;;;;5090927;28;20025;-63
2023/10/03 00:49:28;;;;;;;2.75;2.50;;;;;;;;;;5089779;28;20045;-63
2023/10/03 00:51:56;;;;;;;2.70;2.50;;;;;;;;;;5020767;28;20033;-63
2023/10/03 00:54:21;;;;;;;3.58;2.33;;;;;;;;;;5020159;28;20074;-57
2023/10/03 00:56:47;;;;;;;4.35;2.40;;;;;;;;;;5089679;28;20082;-57
2023/10/03 00:59:13;;;;;;;2.80;2.38;;;;;;;;;;5020936;28;20068;-57
2023/10/03 01:01:40;;;;;;;4.80;2.35;;;;;;;;;;5022349;28;20038;-56
2023/10/03 01:04:11;;;;;;;2.17;2.08;;;;;;;;;;5021259;28;20041;-57
2023/10/03 01:06:36;;;;;;;2.38;2.17;;;;;;;;;;5020253;28;20030;-57
2023/10/03 01:09:03;;;;;;;2.80;2.30;;;;;;;;;;5022201;28;20037;-62
2023/10/03 01:11:29;;;;;;;2.90;2.70;;;;;;;;;;5089656;28;20064;-57
2023/10/03 01:14:00;;;;;;;3.85;2.40;;;;;;;;;;5020277;28;20057;-57
2023/10/03 01:16:31;;;;;;;6.45;3.00;;;;;;;;;;5021142;28;20037;-63
2023/10/03 01:18:59;;;;;;;4.75;2.22;;;;;;;;;;5020083;28;20095;-63
2023/10/03 01:21:27;;;;;;;4.55;2.03;;;;;;;;;;5021726;28;20030;-63
2023/10/03 01:23:54;;;;;;;2.63;2.40;;;;;;;;;;5021939;28;20199;-63
2023/10/03 01:26:21;;;;;;;4.15;2.33;;;;;;;;;;5020308;28;20038;-63
2023/10/03 01:28:46;;;;;;;2.38;2.17;;;;;;;;;;5089340;28;20026;-62
2023/10/03 01:31:12;;;;;;;3.42;2.45;;;;;;;;;;5089824;28;20042;-63
2023/10/03 01:33:39;;;;;;;2.72;2.15;;;;;;;;;;5087935;28;20390;-64
2023/10/03 01:36:05;;;;;;;2.60;2.10;;;;;;;;;;5089294;28;20433;-64
2023/10/03 01:38:31;;;;;;;4.15;2.53;;;;;;;;;;5021492;28;20377;-63
2023/10/03 01:40:57;;;;;;;2.72;2.30;;;;;;;;;;5087991;28;20064;-63
2023/10/03 01:43:23;;;;;;;2.55;2.35;;;;;;;;;;5089997;28;20045;-63
2023/10/03 01:45:49;;;;;;;3.25;2.30;;;;;;;;;;5020907;28;20038;-63
2023/10/03 01:48:17;;;;;;;2.80;2.60;;;;;;;;;;5087373;28;20041;-56
2023/10/03 01:50:44;;;;;;;2.40;2.20;;;;;;;;;;5072555;28;20022;-57
2023/10/03 01:53:11;;;;;;;4.40;2.35;;;;;;;;;;5089197;28;20354;-57
2023/10/03 01:55:37;;;;;;;3.65;2.22;;;;;;;;;;5087662;28;20500;-56
2023/10/03 01:58:03;;;;;;;2.72;2.53;;;;;;;;;;5089525;28;20045;-56
2023/10/03 02:00:30;;;;;;;2.22;2.03;;;;;;;;;;5088880;28;20030;-56
2023/10/03 02:03:04;;;;;;;2.22;2.03;;;;;;;;;;5101013;28;20044;-56
2023/10/03 02:05:31;;;;;;;3.30;2.25;;;;;;;;;;5103163;28;20087;-56
2023/10/03 02:08:30;;;;;;;2.78;2.40;;;;;;;;;;5104556;28;20104;-62
2023/10/03 02:10:49;;;;;;;5.65;2.40;;;;;;;;;;5100622;28;20382;-62
2023/10/03 02:13:15;;;;;;;3.60;2.38;;;;;;;;;;5101595;28;20036;-63
2023/10/03 02:15:40;;;;;;;4.25;2.38;;;;;;;;;;5102693;28;20023;-63
2023/10/03 02:18:08;;;;;;;3.75;2.60;;;;;;;;;;5102716;28;20114;-63
2023/10/03 02:20:38;;;;;;;2.90;2.40;;;;;;;;;;5103136;28;20473;-63
2023/10/03 02:23:05;;;;;;;2.35;2.15;;;;;;;;;;5101891;28;20064;-63
2023/10/03 02:25:35;;;;;;;2.55;2.35;;;;;;;;;;5102833;28;20046;-63
2023/10/03 02:28:02;;;;;;;2.58;2.22;;;;;;;;;;5102453;28;20035;-64
2023/10/03 02:30:28;;;;;;;2.53;2.33;;;;;;;;;;5103260;28;20022;-63
2023/10/03 02:32:55;;;;;;;4.22;2.53;;;;;;;;;;5102957;28;20432;-57
2023/10/03 02:35:22;;;;;;;4.68;2.58;;;;;;;;;;5102230;28;20032;-57
2023/10/03 02:37:49;;;;;;;3.05;2.75;;;;;;;;;;5102075;28;20031;-57
2023/10/03 02:40:21;;;;;;;3.30;2.47;;;;;;;;;;5087320;22;20045;-57
2023/10/03 02:42:48;;;;;;;2.70;2.50;;;;;;;;;;5030563;28;20044;-57
2023/10/03 02:45:17;;;;;;;2.85;2.55;;;;;;;;;;5029316;28;20407;-57
2023/10/03 02:47:43;;;;;;;3.20;2.40;;;;;;;;;;5029050;28;20407;-56
2023/10/03 02:50:12;;;;;;;3.78;2.65;;;;;;;;;;5018871;28;20433;-56
2023/10/03 02:52:39;;;;;;;2.65;2.40;;;;;;;;;;5008778;28;20042;-56
2023/10/03 02:55:08;;;;;;;4.75;2.22;;;;;;;;;;5009831;28;20100;-56
2023/10/03 02:57:35;;;;;;;2.58;2.33;;;;;;;;;;5010812;28;20046;-56
2023/10/03 03:00:05;;;;;;;5.03;2.63;;;;;;;;;;5013012;28;20034;-57
2023/10/03 03:02:31;;;;;;;2.88;2.22;;;;;;;;;;5013103;28;20117;-57
2023/10/03 03:04:59;;;;;;;2.60;2.40;;;;;;;;;;5012855;28;20531;-57
2023/10/03 03:07:25;;;;;;;2.67;2.47;;;;;;;;;;5014218;28;20349;-57
2023/10/03 03:09:51;;;;;;;4.47;2.38;;;;;;;;;;5012674;28;20045;-57
2023/10/03 03:12:16;;;;;;;3.00;2.22;;;;;;;;;;5014290;28;20116;-56
2023/10/03 03:14:42;;;;;;;4.35;2.80;;;;;;;;;;5012512;28;20117;-57
2023/10/03 03:17:13;;;;;;;3.03;2.53;;;;;;;;;;5014249;28;20121;-56
2023/10/03 03:19:39;;;;;;;2.22;2.13;;;;;;;;;;5013596;28;20490;-56
2023/10/03 03:22:04;;;;;;;2.72;2.30;;;;;;;;;;5013823;28;20117;-57
2023/10/03 03:24:33;;;;;;;3.35;2.40;;;;;;;;;;5013700;28;20125;-57
2023/10/03 03:26:59;;;;;;;3.47;2.60;;;;;;;;;;5014187;28;20372;-57
2023/10/03 03:29:35;;;;;;;5.35;2.60;;;;;;;;;;5013584;28;20037;-57
2023/10/03 03:32:01;;;;;;;3.22;2.63;;;;;;;;;;5013990;28;20042;-56
2023/10/03 03:34:26;;;;;;;4.03;2.22;;;;;;;;;;5013650;28;20117;-56
2023/10/03 03:36:55;;;;;;;3.80;2.42;;;;;;;;;;5013514;28;20483;-56
2023/10/03 03:39:20;;;;;;;4.65;2.50;;;;;;;;;;5012397;28;20368;-56
2023/10/03 03:41:46;;;;;;;3.10;2.80;;;;;;;;;;5011955;28;20034;-56
2023/10/03 03:44:12;;;;;;;5.72;3.05;;;;;;;;;;5013876;28;20510;-56
2023/10/03 03:46:41;;;;;;;4.82;2.78;;;;;;;;;;5014052;28;20478;-56
2023/10/03 03:49:08;;;;;;;3.92;2.67;;;;;;;;;;5013165;28;20472;-56
2023/10/03 03:51:33;;;;;;;3.10;2.80;;;;;;;;;;5013026;28;20034;-56
2023/10/03 03:54:00;;;;;;;5.00;2.90;;;;;;;;;;5013329;28;20060;-56
2023/10/03 03:56:25;;;;;;;6.97;2.30;;;;;;;;;;5013353;28;20026;-56
2023/10/03 03:58:51;;;;;;;3.38;3.08;;;;;;;;;;5013039;28;20052;-56
2023/10/03 04:01:23;;;;;;;3.63;2.72;;;;;;;;;;5013364;28;20059;-56
2023/10/03 04:03:53;;;;;;;3.33;2.90;;;;;;;;;;5013517;28;20444;-56
2023/10/03 04:06:19;;;;;;;4.78;2.65;;;;;;;;;;5012654;28;20042;-56
2023/10/03 04:08:45;;;;;;;3.83;2.30;;;;;;;;;;5012562;28;20066;-56
2023/10/03 04:11:11;;;;;;;2.83;2.60;;;;;;;;;;5011982;28;20068;-56
2023/10/03 04:13:49;;;;;;;3.80;2.45;;;;;;;;;;5012752;28;20515;-57
2023/10/03 04:16:19;;;;;;;5.20;2.63;;;;;;;;;;5013412;28;20079;-56
2023/10/03 04:18:51;;;;;;;3.67;2.25;;;;;;;;;;5012737;28;20034;-56
2023/10/03 04:21:19;;;;;;;4.18;2.28;;;;;;;;;;5013373;28;20050;-57
2023/10/03 04:23:47;;;;;;;3.08;2.35;;;;;;;;;;5012729;28;20042;-57
2023/10/03 04:26:13;;;;;;;3.90;2.65;;;;;;;;;;5012651;28;20041;-57
2023/10/03 04:28:38;;;;;;;4.03;3.08;;;;;;;;;;5012120;28;20141;-57
2023/10/03 04:31:04;;;;;;;4.22;2.70;;;;;;;;;;5012336;28;20041;-57
2023/10/03 04:33:29;;;;;;;2.92;2.40;;;;;;;;;;5013407;28;20030;-57
2023/10/03 04:35:56;;;;;;;2.88;2.60;;;;;;;;;;5012774;28;20041;-57
2023/10/03 04:38:22;;;;;;;4.25;2.38;;;;;;;;;;5012844;28;20086;-57
2023/10/03 04:40:47;;;;;;;4.18;2.55;;;;;;;;;;5066095;28;20047;-57
2023/10/03 04:43:14;;;;;;;3.88;2.70;;;;;;;;;;5115863;28;20043;-58
2023/10/03 04:45:40;;;;;;;4.85;3.05;;;;;;;;;;5080487;28;20035;-58
2023/10/03 04:48:06;;;;;;;3.45;2.75;;;;;;;;;;5116023;28;20386;-58
2023/10/03 04:50:32;;;;;;;3.10;2.80;;;;;;;;;;5115986;28;20028;-58
2023/10/03 04:52:59;;;;;;;5.30;2.75;;;;;;;;;;5115548;28;20035;-57
2023/10/03 04:55:26;;;;;;;4.13;2.70;;;;;;;;;;5116086;28;20070;-58
2023/10/03 04:57:52;;;;;;;6.93;3.28;;;;;;;;;;5115949;28;20082;-58
2023/10/03 05:00:19;;;;;;;3.33;2.58;;;;;;;;;;5097910;28;20023;-58
2023/10/03 05:02:48;;;;;;;4.30;2.55;;;;;;;;;;5115981;28;20035;-57
2023/10/03 05:05:18;;;;;;;5.03;2.47;;;;;;;;;;5115508;28;20493;-57
2023/10/03 05:07:44;;;;;;;4.30;2.75;;;;;;;;;;5115599;28;20125;-57
2023/10/03 05:10:10;;;;;;;2.58;2.38;;;;;;;;;;5114539;28;20039;-58
2023/10/03 05:12:35;;;;;;;3.50;2.97;;;;;;;;;;5114921;28;20019;-58
2023/10/03 05:15:01;;;;;;;3.17;2.40;;;;;;;;;;5115348;28;20067;-64
2023/10/03 05:17:27;;;;;;;3.90;2.45;;;;;;;;;;5115213;28;20106;-65
2023/10/03 05:19:58;;;;;;;2.95;2.40;;;;;;;;;;5096796;28;20034;-64
2023/10/03 05:22:25;;;;;;;5.40;2.92;;;;;;;;;;5114421;28;20035;-65
2023/10/03 05:24:51;;;;;;;6.55;2.95;;;;;;;;;;5114842;28;20090;-65
2023/10/03 05:27:17;;;;;;;4.07;3.10;;;;;;;;;;5115376;28;20148;-59
2023/10/03 05:29:43;;;;;;;5.43;3.10;;;;;;;;;;5115062;28;20449;-59
2023/10/03 05:32:09;;;;;;;8.00;2.90;;;;;;;;;;5114997;28;20118;-59
2023/10/03 05:34:34;;;;;;;6.65;3.17;;;;;;;;;;5115239;28;20220;-59
2023/10/03 05:37:00;;;;;;;6.53;3.28;;;;;;;;;;5114632;28;20465;-57
2023/10/03 05:39:26;;;;;;;14.18;4.35;;;;;;;;;;5114554;28;20031;-59
2023/10/03 05:41:56;;;;;;;9.93;4.32;;;;;;;;;;5114371;28;20031;-60
2023/10/03 05:44:21;;;;;;;5.95;3.60;;;;;;;;;;5113930;28;20040;-59
2023/10/03 05:46:52;;;;;;;7.20;4.18;;;;;;;;;;5113834;28;20040;-60
2023/10/03 05:49:18;;;;;;;6.65;4.32;;;;;;;;;;5123365;27;20116;-60
2023/10/03 05:51:44;;;;;;;9.05;4.30;;;;;;;;;;5103588;27;20115;-60
2023/10/03 05:54:09;;;;;;;9.75;4.07;;;;;;;;;;5124085;27;20426;-65
2023/10/03 05:56:34;;;;;;;5.00;4.10;;;;;;;;;;5121886;27;20024;-60
2023/10/03 05:59:00;;;;;;;6.28;4.20;;;;;;;;;;5122095;27;20039;-59
2023/10/03 06:01:25;;;;;;;7.20;4.15;;;;;;;;;;5104340;27;20043;-59
2023/10/03 06:03:51;;;;;;;9.43;4.45;;;;;;;;;;5102124;28;20031;-60
2023/10/03 06:06:16;;;;;;;8.00;3.75;;;;;;;;;;5121790;27;20043;-60
2023/10/03 06:08:41;;;;;;;8.23;4.43;;;;;;;;;;5102252;27;20111;-60
2023/10/03 06:11:07;;;;;;;5.47;3.97;;;;;;;;;;5127136;27;20020;-59
2023/10/03 06:13:32;;;;;;;5.97;4.55;;;;;;;;;;5121797;28;20032;-60
2023/10/03 06:15:59;;;;;;;7.88;4.75;;;;;;;;;;5115802;28;20119;-59
2023/10/03 06:18:27;;;;;;;9.55;4.63;;;;;;;;;;5120457;28;20065;-59
2023/10/03 06:20:52;;;;;;;6.20;4.22;;;;;;;;;;5102087;28;20039;-59
2023/10/03 06:23:18;;;;;;;5.47;4.50;;;;;;;;;;5102793;28;20123;-59
2023/10/03 06:25:44;;;;;;;8.68;4.07;;;;;;;;;;5125082;28;20023;-59
2023/10/03 06:28:09;;;;;;;7.47;4.45;;;;;;;;;;5124092;28;20050;-60
2023/10/03 06:30:36;;;;;;;6.30;4.25;;;;;;;;;;5130442;28;20478;-59
2023/10/03 06:33:03;;;;;;;9.70;5.63;;;;;;;;;;5113941;28;20038;-59
2023/10/03 06:35:28;;;;;;;9.35;5.13;;;;;;;;;;5137373;27;20031;-60
2023/10/03 06:37:55;;;;;;;9.85;6.03;;;;;;;;;;5138332;27;20369;-60
2023/10/03 06:40:21;;;;;;;8.25;5.18;;;;;;;;;;5138219;27;20046;-59
2023/10/03 06:42:46;;;;;;;7.35;5.43;;;;;;;;;;5132567;27;20078;-60
2023/10/03 06:45:13;;;;;;;7.60;4.82;;;;;;;;;;5117552;28;20454;-60
2023/10/03 06:47:39;;;;;;;7.28;4.82;;;;;;;;;;5117624;28;20433;-60
2023/10/03 06:50:05;;;;;;;11.35;4.65;;;;;;;;;;5117119;28;20044;-60
2023/10/03 06:52:32;;;;;;;9.13;5.10;;;;;;;;;;5117137;28;20365;-60
2023/10/03 06:54:58;;;;;;;8.40;5.13;;;;;;;;;;5117454;28;20054;-60
2023/10/03 06:57:23;;;;;;;8.43;4.07;;;;;;;;;;5099214;28;20031;-60
2023/10/03 06:59:49;;;;;;;6.53;4.45;;;;;;;;;;5117304;28;20028;-60
2023/10/03 07:02:14;;;;;;;6.25;4.05;;;;;;;;;;5117860;27;20027;-60
2023/10/03 07:04:39;;;;;;;6.38;4.15;;;;;;;;;;5127413;27;20035;-60
2023/10/03 07:07:05;;;;;;;8.98;4.32;;;;;;;;;;5109135;27;20015;-65
2023/10/03 07:09:31;;;;;;;10.52;6.05;;;;;;;;;;5127300;27;20071;-60
2023/10/03 07:11:58;;;;;;;18.30;8.75;;;;;;;;;;5124158;27;20462;-65
2023/10/03 07:14:23;;;;;;;12.07;6.72;;;;;;;;;;5129301;27;20500;-65
2023/10/03 07:16:51;;;;;;;11.90;6.88;;;;;;;;;;5125035;27;20067;-65
2023/10/03 07:19:17;;;;;;;9.07;5.20;;;;;;;;;;5125850;27;20031;-65
2023/10/03 07:21:42;;;;;;;6.20;3.80;;;;;;;;;;5126915;27;20039;-64
2023/10/03 07:24:08;;;;;;;4.35;3.00;;;;;;;;;;5118077;27;20044;-60
2023/10/03 07:26:34;;;;;;;6.07;3.35;;;;;;;;;;5090119;27;20083;-65
2023/10/03 07:29:01;;;;;;;5.68;3.08;;;;;;;;;;5127007;27;20031;-61
2023/10/03 07:31:27;;;;;;;6.40;2.95;;;;;;;;;;5125326;27;20101;-65
2023/10/03 07:33:53;;;;;;;5.53;3.47;;;;;;;;;;5125523;27;20035;-65
2023/10/03 07:36:19;;;;;;;6.15;3.05;;;;;;;;;;5126785;27;20557;-65
2023/10/03 07:38:47;;;;;;;6.45;3.42;;;;;;;;;;5124835;27;20036;-65
2023/10/03 07:41:13;;;;;;;5.45;2.75;;;;;;;;;;5122656;27;20123;-65
2023/10/03 07:43:42;;;;;;;6.55;3.42;;;;;;;;;;5116318;28;20067;-65
2023/10/03 07:46:07;;;;;;;6.10;3.08;;;;;;;;;;5097772;28;20127;-65
2023/10/03 07:48:33;;;;;;;6.32;3.67;;;;;;;;;;5115806;28;20123;-60
2023/10/03 07:50:58;;;;;;;7.63;3.53;;;;;;;;;;5122720;27;20024;-63
2023/10/03 07:53:24;;;;;;;7.88;3.97;;;;;;;;;;5125850;27;20032;-59
2023/10/03 07:55:49;;;;;;;6.00;3.65;;;;;;;;;;5127086;27;20392;-63
2023/10/03 07:58:15;;;;;;;7.00;3.25;;;;;;;;;;5121341;27;20050;-60
2023/10/03 08:00:44;;;;;;;8.68;3.80;;;;;;;;;;5115960;28;20039;-60
2023/10/03 08:03:11;;;;;;;8.45;3.90;;;;;;;;;;5097379;28;20535;-59
2023/10/03 08:05:37;;;;;;;7.18;4.55;;;;;;;;;;5115615;28;20031;-60
2023/10/03 08:08:03;;;;;;;8.48;4.40;;;;;;;;;;5115834;28;20110;-60
2023/10/03 08:10:30;;;;;;;9.88;4.10;;;;;;;;;;5097519;28;20407;-60
2023/10/03 08:12:55;;;;;;;8.48;4.00;;;;;;;;;;5115004;28;20046;-65
2023/10/03 08:15:22;;;;;;;10.68;4.45;;;;;;;;;;5115669;28;20388;-60
2023/10/03 08:17:49;;;;;;;9.30;4.25;;;;;;;;;;5115788;28;20038;-60
2023/10/03 08:20:15;;;;;;;13.07;4.30;;;;;;;;;;5097665;28;20397;-60
2023/10/03 08:22:41;;;;;;;8.77;4.15;;;;;;;;;;5115702;28;20044;-60
2023/10/03 08:25:08;;;;;;;9.40;3.53;;;;;;;;;;5115746;28;20025;-60
2023/10/03 08:27:33;;;;;;;7.63;3.92;;;;;;;;;;5115591;28;20047;-60
2023/10/03 08:30:00;;;;;;;9.43;3.72;;;;;;;;;;5115478;28;20024;-60
2023/10/03 08:32:26;;;;;;;6.55;3.78;;;;;;;;;;5115241;28;20040;-60
2023/10/03 08:34:52;;;;;;;6.80;2.95;;;;;;;;;;5115391;28;20043;-60
2023/10/03 08:37:24;;;;;;;5.85;3.25;;;;;;;;;;5115439;28;20099;-60
2023/10/03 08:39:53;;;;;;;3.60;3.25;;;;;;;;;;5102522;28;20043;-60
2023/10/03 08:42:18;;;;;;;5.28;2.92;;;;;;;;;;5012125;28;20160;-60
2023/10/03 08:44:52;;;;;;;4.22;2.70;;;;;;;;;;5012045;28;20079;-60
2023/10/03 08:47:21;;;;;;;4.75;2.95;;;;;;;;;;5011990;28;20042;-59
2023/10/03 08:49:48;;;;;;;5.97;2.80;;;;;;;;;;5011972;28;20034;-60
2023/10/03 08:52:13;;;;;;;4.07;2.83;;;;;;;;;;5011991;28;20038;-60
2023/10/03 08:54:41;;;;;;;6.97;3.05;;;;;;;;;;5079089;28;20056;-60
2023/10/03 08:57:09;;;;;;;5.40;3.03;;;;;;;;;;5010998;28;20125;-60
2023/10/03 08:59:35;;;;;;;3.65;2.63;;;;;;;;;;5011838;28;20038;-60
2023/10/03 09:02:01;;;;;;;4.65;2.38;;;;;;;;;;5011792;28;20046;-60
2023/10/03 09:04:37;;;;;;;5.55;2.97;;;;;;;;;;5011659;28;20404;-60
2023/10/03 09:07:08;;;;;;;2.63;2.00;;;;;;;;;;5011465;28;20067;-60
2023/10/03 09:09:41;;;;;;;3.30;2.67;;;;;;;;;;5011615;28;20386;-60
2023/10/03 09:12:12;;;;;;;4.53;2.90;;;;;;;;;;5011681;28;20112;-60
2023/10/03 09:14:38;;;;;;;4.60;2.60;;;;;;;;;;5011600;28;20387;-60
2023/10/03 09:17:04;;;;;;;3.88;2.13;;;;;;;;;;5011599;28;20109;-60
2023/10/03 09:19:45;;;;;;;5.00;2.70;;;;;;;;;;5011506;28;20034;-60
2023/10/03 09:22:15;;;;;;;2.47;2.20;;;;;;;;;;5011505;28;20523;-60
2023/10/03 09:24:44;;;;;;;4.38;2.58;;;;;;;;;;5011521;28;20034;-60
2023/10/03 09:27:10;;;;;;;6.38;2.92;;;;;;;;;;5011367;28;20415;-60
2023/10/03 09:29:35;;;;;;;2.70;1.88;;;;;;;;;;5079284;28;20041;-60
2023/10/03 09:32:07;;;;;;;5.97;2.28;;;;;;;;;;5012212;28;20051;-59
2023/10/03 09:34:34;;;;;;;4.63;2.70;;;;;;;;;;5076838;28;20022;-60
2023/10/03 09:37:02;;;;;;;6.68;3.00;;;;;;;;;;5011007;28;20091;-60
2023/10/03 09:39:48;;;;;;;5.75;2.88;;;;;;;;;;5011195;28;20049;-60
2023/10/03 09:42:18;;;;;;;5.10;2.85;;;;;;;;;;4991615;28;20074;-60
2023/10/03 09:44:44;;;;;;;4.80;2.78;;;;;;;;;;4991121;28;20420;-60
2023/10/03 09:47:12;;;;;;;3.70;2.65;;;;;;;;;;4991548;28;20038;-60
2023/10/03 09:49:38;;;;;;;3.13;2.40;;;;;;;;;;4991593;28;20027;-60
2023/10/03 09:52:16;;;;;;;3.40;2.45;;;;;;;;;;4991458;28;20050;-60
2023/10/03 09:54:43;;;;;;;5.18;2.53;;;;;;;;;;4991445;28;20553;-60
2023/10/03 09:57:18;;;;;;;4.03;2.92;;;;;;;;;;5058533;28;20487;-60
2023/10/03 09:59:46;;;;;;;2.47;2.28;;;;;;;;;;5002870;28;20042;-60
2023/10/03 10:02:15;;;;;;;5.18;2.50;;;;;;;;;;5078475;28;20027;-60
2023/10/03 10:04:45;;;;;;;2.60;2.25;;;;;;;;;;5010762;28;20034;-60
2023/10/03 10:07:29;;;;;;;3.22;2.45;;;;;;;;;;5078604;28;20046;-64
2023/10/03 10:10:00;;;;;;;3.83;2.78;;;;;;;;;;5010881;28;20049;-64
2023/10/03 10:12:26;;;;;;;2.22;1.80;;;;;;;;;;5010742;28;20038;-65
2023/10/03 10:15:01;;;;;;;2.78;2.03;;;;;;;;;;5010827;28;20061;-65
2023/10/03 10:17:51;;;;;;;3.08;1.60;;;;;;;;;;5010534;28;20049;-65
2023/10/03 10:20:17;;;;;;;3.78;2.28;;;;;;;;;;5010454;28;20367;-64
2023/10/03 10:22:58;;;;;;;4.15;2.47;;;;;;;;;;5010340;28;20025;-65
2023/10/03 10:25:27;;;;;;;4.32;2.88;;;;;;;;;;5010592;28;20044;-65
2023/10/03 10:28:02;;;;;;;4.60;3.25;;;;;;;;;;5010673;28;20045;-65
2023/10/03 10:30:28;;;;;;;4.25;2.83;;;;;;;;;;5010578;28;20046;-65
2023/10/03 10:33:12;;;;;;;1.13;1.08;;;;;;;;;;5010562;28;20070;-65
2023/10/03 10:35:53;;;;;;;4.22;2.25;;;;;;;;;;5010461;28;20094;-65
2023/10/03 10:38:18;;;;;;;5.30;2.92;;;;;;;;;;5010488;28;20499;-65
2023/10/03 10:41:05;;;;;;;5.25;2.78;;;;;;;;;;5087855;28;20081;-65
2023/10/03 10:43:32;;;;;;;2.45;1.80;;;;;;;;;;5030002;28;20081;-65
2023/10/03 10:46:30;;;;;;;4.30;2.88;;;;;;;;;;5030117;28;20054;-65
2023/10/03 10:48:55;;;;;;;3.88;2.83;;;;;;;;;;5098167;28;20041;-66
2023/10/03 10:51:21;;;;;;;6.88;2.88;;;;;;;;;;5030066;28;20421;-65
2023/10/03 10:53:47;;;;;;;2.85;2.13;;;;;;;;;;5098170;28;20120;-65
2023/10/03 10:56:16;;;;;;;1.98;1.40;;;;;;;;;;5098192;28;20041;-65
2023/10/03 10:58:52;;;;;;;5.03;2.80;;;;;;;;;;5029474;28;20074;-65
2023/10/03 11:01:18;;;;;;;6.25;3.65;;;;;;;;;;5029761;28;20046;-66
2023/10/03 11:03:44;;;;;;;3.22;2.22;;;;;;;;;;5030160;28;20462;-65
2023/10/03 11:06:16;;;;;;;3.70;2.38;;;;;;;;;;5029779;28;20065;-65
2023/10/03 11:08:46;;;;;;;4.22;3.00;;;;;;;;;;5098051;28;20415;-65
2023/10/03 11:11:13;;;;;;;3.67;2.20;;;;;;;;;;5029879;28;20042;-60
2023/10/03 11:13:49;;;;;;;5.53;3.00;;;;;;;;;;5029637;28;20469;-60
2023/10/03 11:16:21;;;;;;;3.28;2.38;;;;;;;;;;5029756;28;20049;-60
2023/10/03 11:18:46;;;;;;;5.80;2.67;;;;;;;;;;5029711;28;20095;-60
2023/10/03 11:21:12;;;;;;;7.30;3.92;;;;;;;;;;5101811;28;20081;-60
2023/10/03 11:23:38;;;;;;;4.80;2.85;;;;;;;;;;5033016;28;20084;-60
2023/10/03 11:26:05;;;;;;;7.70;4.28;;;;;;;;;;5032907;28;20037;-60
2023/10/03 11:28:43;;;;;;;5.03;3.53;;;;;;;;;;5033075;28;20480;-60
2023/10/03 11:31:09;;;;;;;4.15;2.83;;;;;;;;;;5032866;28;20033;-60
2023/10/03 11:33:44;;;;;;;3.33;1.60;;;;;;;;;;5033055;28;20094;-60
2023/10/03 11:36:11;;;;;;;2.22;1.80;;;;;;;;;;5032812;28;20026;-60
2023/10/03 11:38:49;;;;;;;3.92;3.08;;;;;;;;;;5032755;28;20454;-60
2023/10/03 11:41:30;;;;;;;7.00;3.45;;;;;;;;;;5105893;27;20071;-60
2023/10/03 11:43:56;;;;;;;6.55;3.47;;;;;;;;;;5118564;27;20043;-60
2023/10/03 11:46:21;;;;;;;3.92;3.20;;;;;;;;;;5136961;27;20488;-60
2023/10/03 11:48:56;;;;;;;8.05;4.15;;;;;;;;;;5137086;27;20134;-60
2023/10/03 11:51:21;;;;;;;6.70;3.90;;;;;;;;;;5136951;27;20084;-60
2023/10/03 11:53:46;;;;;;;5.68;2.92;;;;;;;;;;5136940;27;20574;-60
2023/10/03 11:56:12;;;;;;;9.73;4.13;;;;;;;;;;5136629;27;20031;-60
2023/10/03 11:58:37;;;;;;;8.23;4.25;;;;;;;;;;5136827;27;20043;-60
2023/10/03 12:01:03;;;;;;;7.22;4.10;;;;;;;;;;5118484;27;20049;-60
2023/10/03 12:03:30;;;;;;;6.35;3.80;;;;;;;;;;5101230;27;20027;-60
2023/10/03 12:05:57;;;;;;;4.95;2.85;;;;;;;;;;5136721;27;20051;-60
2023/10/03 12:08:23;;;;;;;8.82;3.90;;;;;;;;;;5136715;27;20039;-60
2023/10/03 12:10:49;;;;;;;5.78;3.28;;;;;;;;;;5118212;27;20451;-60
2023/10/03 12:13:15;;;;;;;4.60;2.92;;;;;;;;;;5118221;27;20106;-60
2023/10/03 12:15:42;;;;;;;5.00;3.10;;;;;;;;;;5136345;27;20062;-60
2023/10/03 12:18:08;;;;;;;7.72;3.63;;;;;;;;;;5136415;27;20100;-60
2023/10/03 12:20:34;;;;;;;6.82;2.95;;;;;;;;;;5134344;27;20035;-60
2023/10/03 12:23:00;;;;;;;5.55;2.63;;;;;;;;;;5135963;27;20163;-60
2023/10/03 12:25:27;;;;;;;7.40;3.65;;;;;;;;;;5135819;27;20129;-60
2023/10/03 12:27:52;;;;;;;7.10;3.47;;;;;;;;;;5136036;27;20091;-60
2023/10/03 12:30:18;;;;;;;2.92;1.67;;;;;;;;;;5117423;27;20035;-60
2023/10/03 12:32:44;;;;;;;4.80;3.38;;;;;;;;;;5135721;27;20384;-60
2023/10/03 12:35:10;;;;;;;6.43;2.88;;;;;;;;;;5117643;27;20548;-60
2023/10/03 12:37:36;;;;;;;3.03;2.13;;;;;;;;;;5136168;27;20082;-60
2023/10/03 12:40:04;;;;;;;3.83;2.38;;;;;;;;;;5117333;27;20059;-60
2023/10/03 12:42:31;;;;;;;1.75;1.25;;;;;;;;;;5136181;27;20035;-60
2023/10/03 12:44:57;;;;;;;3.97;2.28;;;;;;;;;;5135864;27;20122;-60
2023/10/03 12:47:22;;;;;;;3.42;1.65;;;;;;;;;;5117627;27;20508;-60
2023/10/03 12:49:48;;;;;;;5.43;3.13;;;;;;;;;;5135855;27;20063;-60
2023/10/03 12:52:13;;;;;;;14.27;2.47;;;;;;;;;;5135844;27;20042;-60
2023/10/03 12:54:39;;;;;;;5.55;3.35;;;;;;;;;;5135099;27;20045;-60
2023/10/03 12:57:05;;;;;;;8.18;3.95;;;;;;;;;;5134905;27;20039;-60
2023/10/03 12:59:31;;;;;;;4.10;1.67;;;;;;;;;;5135277;27;20046;-60
2023/10/03 13:01:57;;;;;;;7.75;4.35;;;;;;;;;;5135566;27;20038;-60
2023/10/03 13:04:23;;;;;;;5.80;3.42;;;;;;;;;;5117099;27;20082;-60
2023/10/03 13:06:50;;;;;;;6.72;4.20;;;;;;;;;;5133566;27;20079;-60
2023/10/03 13:09:16;;;;;;;8.50;4.20;;;;;;;;;;5135373;27;20076;-60
2023/10/03 13:11:42;;;;;;;8.45;4.10;;;;;;;;;;5134624;27;20076;-60
2023/10/03 13:14:09;;;;;;;10.48;4.05;;;;;;;;;;5134736;27;20496;-60
2023/10/03 13:16:34;;;;;;;7.25;3.97;;;;;;;;;;5135025;27;20039;-60
2023/10/03 13:19:00;;;;;;;6.97;2.80;;;;;;;;;;5135348;27;20145;-60
2023/10/03 13:21:26;;;;;;;2.08;1.15;;;;;;;;;;5135336;27;20031;-60
2023/10/03 13:23:52;;;;;;;9.85;5.80;;;;;;;;;;5135269;27;20559;-60
2023/10/03 13:26:17;;;;;;;12.25;5.60;;;;;;;;;;5135103;27;20038;-60
2023/10/03 13:28:43;;;;;;;11.00;5.07;;;;;;;;;;5135662;27;20035;-60
2023/10/03 13:31:08;;;;;;;9.43;4.88;;;;;;;;;;5126177;27;20038;-60
2023/10/03 13:33:37;;;;;;;11.02;5.35;;;;;;;;;;5127113;27;20039;-60
2023/10/03 13:36:03;;;;;;;7.05;3.40;;;;;;;;;;5116833;27;20057;-60
2023/10/03 13:38:34;;;;;;;10.32;4.47;;;;;;;;;;5135129;27;20039;-60
2023/10/03 13:40:59;;;;;;;9.82;5.00;;;;;;;;;;5073631;27;20128;-60
2023/10/03 13:43:27;;;;;;;8.65;4.20;;;;;;;;;;5098925;28;20073;-60
2023/10/03 13:45:54;;;;;;;12.30;5.75;;;;;;;;;;5030092;28;20067;-60
2023/10/03 13:48:20;;;;;;;5.28;3.35;;;;;;;;;;5030275;28;20099;-60
2023/10/03 13:50:45;;;;;;;5.60;2.83;;;;;;;;;;5098216;28;20459;-60
2023/10/03 13:53:13;;;;;;;9.00;4.32;;;;;;;;;;5023952;28;20042;-60
2023/10/03 13:55:39;;;;;;;6.45;3.80;;;;;;;;;;5010560;28;20046;-60
2023/10/03 13:58:05;;;;;;;3.88;2.65;;;;;;;;;;5010592;28;20131;-60
2023/10/03 14:00:35;;;;;;;10.45;5.72;;;;;;;;;;5078716;28;20081;-60
2023/10/03 14:03:05;;;;;;;;;;;;;;;;;;5079299;28;20387;-60
2023/10/03 14:05:34;;;;;;;11.32;5.18;;;;;;;;;;5011051;28;19914;-64
2023/10/03 14:08:03;;;;;;;11.73;4.67;;;;;;;;;;5011276;28;20083;-60
2023/10/03 14:10:29;;;;;;;8.48;4.63;;;;;;;;;;5078400;28;20723;-60
2023/10/03 14:12:54;;;;;;;10.63;4.65;;;;;;;;;;5011155;28;20037;-60
2023/10/03 14:15:21;;;;;;;12.60;6.07;;;;;;;;;;5010274;28;20111;-60
2023/10/03 14:17:47;;;;;;;10.38;5.03;;;;;;;;;;5010757;28;20130;-60
2023/10/03 14:20:13;;;;;;;10.00;4.20;;;;;;;;;;5011277;28;20053;-60
2023/10/03 14:22:40;;;;;;;10.60;5.30;;;;;;;;;;5010236;28;20038;-60
2023/10/03 14:25:11;;;;;;;9.07;5.30;;;;;;;;;;5010055;28;20533;-63
2023/10/03 14:27:37;;;;;;;8.50;5.00;;;;;;;;;;5011147;28;20060;-64
2023/10/03 14:30:03;;;;;;;8.57;4.57;;;;;;;;;;5011229;28;20475;-64
2023/10/03 14:32:29;;;;;;;11.55;5.43;;;;;;;;;;5010923;28;20030;-64
2023/10/03 14:34:56;;;;;;;11.77;5.53;;;;;;;;;;5010575;28;20049;-64
2023/10/03 14:37:22;;;;;;;14.77;6.07;;;;;;;;;;5010143;28;20038;-59
2023/10/03 14:39:47;;;;;;;12.48;5.63;;;;;;;;;;5021180;28;20038;-59
2023/10/03 14:42:13;;;;;;;13.68;5.93;;;;;;;;;;5113726;28;20122;-59
2023/10/03 14:44:40;;;;;;;11.48;5.57;;;;;;;;;;5114263;28;20078;-59